Time;durP1;ratioP1;P1;durP2;ratioP2;P2;SDS_P1;SDS_P2;PMS_P1;PMS_P2;Temp;Humidity;BMP_temperature;BMP_pressure;BME280_temperature;BME280_humidity;BME280_pressure;Samples;Min_cycle;Max_cycle;Signal;HPM_P1;HPM_P2
2023/11/26 00:00:07;;;;;;;6.50;6.40;;;5.00;44.50;;;;;;5015070;28;20214;-76
2023/11/26 00:02:35;;;;;;;7.10;6.97;;;5.00;10.20;;;;;;5014996;28;20214;-74
2023/11/26 00:05:04;;;;;;;7.10;6.90;;;5.00;60.00;;;;;;5014609;28;20245;-76
2023/11/26 00:07:32;;;;;;;7.15;7.03;;;5.00;99.90;;;;;;5015201;28;20223;-77
2023/11/26 00:10:02;;;;;;;7.35;7.15;;;5.00;99.90;;;;;;5015676;28;20234;-76
2023/11/26 00:12:30;;;;;;;7.13;7.03;;;5.00;99.90;;;;;;5014473;28;20281;-76
2023/11/26 00:14:59;;;;;;;7.60;7.30;;;5.00;99.90;;;;;;5017940;28;20241;-76
2023/11/26 00:17:28;;;;;;;7.40;7.07;;;5.00;99.90;;;;;;5013405;28;20445;-76
2023/11/26 00:19:57;;;;;;;9.20;8.65;;;5.00;99.90;;;;;;5013545;28;20253;-76
2023/11/26 00:22:28;;;;;;;7.97;7.68;;;5.00;99.90;;;;;;5015770;28;20567;-77
2023/11/26 00:24:56;;;;;;;7.47;7.27;;;5.00;99.90;;;;;;5015169;28;20202;-76
2023/11/26 00:27:25;;;;;;;7.80;7.50;;;5.00;99.90;;;;;;5014658;28;20484;-77
2023/11/26 00:29:53;;;;;;;7.78;7.50;;;5.00;99.90;;;;;;5016613;28;20204;-75
2023/11/26 00:32:21;;;;;;;8.05;7.85;;;5.00;99.90;;;;;;5015540;28;20715;-75
2023/11/26 00:34:51;;;;;;;8.15;7.85;;;5.00;99.90;;;;;;5015561;28;20637;-77
2023/11/26 00:37:19;;;;;;;8.52;7.82;;;5.00;99.90;;;;;;5015348;28;20687;-76
2023/11/26 00:39:48;;;;;;;7.97;7.75;;;4.90;99.90;;;;;;5015657;28;20203;-76
2023/11/26 00:42:16;;;;;;;7.63;7.43;;;4.90;97.80;;;;;;5014099;28;20262;-76
2023/11/26 00:44:44;;;;;;;8.85;8.40;;;4.90;99.90;;;;;;5015159;28;20555;-75
2023/11/26 00:47:12;;;;;;;8.40;8.00;;;4.90;99.90;;;;;;5007711;28;20369;-76
2023/11/26 00:49:41;;;;;;;9.10;8.70;;;4.80;99.90;;;;;;5009994;28;20452;-76
2023/11/26 00:52:11;;;;;;;9.25;8.45;;;4.90;99.90;;;;;;5013731;28;20485;-76
2023/11/26 00:54:40;;;;;;;8.82;8.45;;;4.90;99.90;;;;;;5015889;28;20228;-76
2023/11/26 00:57:08;;;;;;;7.97;7.78;;;4.90;99.90;;;;;;5013430;28;20289;-76
2023/11/26 00:59:36;;;;;;;7.85;7.65;;;5.00;99.90;;;;;;5010918;28;20206;-76
2023/11/26 01:02:07;;;;;;;8.00;7.77;;;5.00;99.90;;;;;;5013974;28;20218;-74
2023/11/26 01:04:36;;;;;;;8.27;8.00;;;5.00;99.90;;;;;;5017321;28;20462;-76
2023/11/26 01:07:05;;;;;;;8.82;8.43;;;5.00;99.90;;;;;;5014365;28;20528;-75
2023/11/26 01:09:35;;;;;;;8.63;8.25;;;4.90;99.90;;;;;;5012710;28;20637;-76
2023/11/26 01:12:03;;;;;;;7.97;7.78;;;5.00;99.90;;;;;;5015012;28;20209;-75
2023/11/26 01:14:32;;;;;;;8.50;8.13;;;5.10;99.90;;;;;;5015053;28;20203;-77
2023/11/26 01:17:00;;;;;;;8.20;7.80;;;5.00;26.30;;;;;;5012588;28;20445;-75
2023/11/26 01:19:28;;;;;;;8.40;7.97;;;4.90;66.10;;;;;;5013898;28;21397;-76
2023/11/26 01:21:56;;;;;;;7.80;7.60;;;5.00;26.30;;;;;;5018147;28;20457;-76
2023/11/26 01:24:25;;;;;;;8.27;7.88;;;5.10;1.00;;;;;;5011266;28;20453;-76
2023/11/26 01:26:54;;;;;;;8.00;7.70;;;5.10;1.00;;;;;;5014166;28;20268;-76
2023/11/26 01:29:22;;;;;;;7.70;7.40;;;5.10;1.00;;;;;;5014932;28;20218;-75
2023/11/26 01:31:51;;;;;;;8.35;8.05;;;5.00;1.00;;;;;;5019954;28;20199;-76
2023/11/26 01:34:19;;;;;;;8.30;8.00;;;5.00;1.00;;;;;;5017131;28;20199;-76
2023/11/26 01:36:47;;;;;;;8.23;8.02;;;5.00;1.00;;;;;;5015941;28;20464;-76
2023/11/26 01:39:15;;;;;;;8.85;8.55;;;5.00;1.00;;;;;;5018499;28;20203;-76
2023/11/26 01:41:43;;;;;;;8.10;7.80;;;5.00;1.00;;;;;;5018942;28;20210;-76
2023/11/26 01:44:13;;;;;;;8.20;7.97;;;4.90;99.20;;;;;;5018896;28;20230;-73
2023/11/26 01:46:42;;;;;;;8.05;7.85;;;4.90;99.90;;;;;;5016685;28;20668;-76
2023/11/26 01:49:10;;;;;;;8.63;8.27;;;4.90;99.90;;;;;;5015335;28;20687;-76
2023/11/26 01:51:38;;;;;;;8.60;8.30;;;5.00;99.90;;;;;;5019447;28;20460;-76
2023/11/26 01:54:07;;;;;;;8.10;7.90;;;5.00;99.90;;;;;;5018316;28;20588;-77
2023/11/26 01:56:36;;;;;;;8.55;8.05;;;5.00;99.90;;;;;;5017225;28;20206;-76
2023/11/26 01:59:04;;;;;;;8.77;8.25;;;4.90;60.60;;;;;;5016847;28;20619;-77
2023/11/26 02:01:35;;;;;;;8.30;7.93;;;4.90;24.80;;;;;;5017084;28;20215;-77
2023/11/26 02:04:04;;;;;;;19.25;8.98;;;4.90;64.40;;;;;;5018367;28;20214;-77
2023/11/26 02:06:33;;;;;;;8.77;8.30;;;4.80;99.90;;;;;;5020198;28;20205;-76
2023/11/26 02:09:04;;;;;;;8.63;8.00;;;4.80;99.90;;;;;;5017506;28;20310;-74
2023/11/26 02:11:33;;;;;;;8.40;8.00;;;4.80;99.90;;;;;;5016576;28;20290;-77
2023/11/26 02:14:01;;;;;;;8.05;7.95;;;4.80;93.10;;;;;;5018860;28;20312;-76
2023/11/26 02:16:29;;;;;;;8.35;8.05;;;4.70;50.00;;;;;;5016788;28;20861;-76
2023/11/26 02:19:00;;;;;;;8.67;8.30;;;4.70;1.00;;;;;;5019736;28;20625;-76
2023/11/26 02:21:28;;;;;;;8.05;7.65;;;4.60;1.00;;;;;;5018675;28;20457;-77
2023/11/26 02:23:56;;;;;;;8.20;7.85;;;4.60;1.00;;;;;;5018896;28;20227;-76
2023/11/26 02:26:25;;;;;;;8.48;8.20;;;4.50;1.00;;;;;;5016164;28;20222;-76
2023/11/26 02:28:54;;;;;;;7.90;7.70;;;4.50;8.30;;;;;;5015427;28;20222;-75
2023/11/26 02:31:22;;;;;;;7.75;7.45;;;4.50;70.60;;;;;;5012938;28;20749;-76
2023/11/26 02:33:50;;;;;;;8.38;7.88;;;4.50;99.90;;;;;;5019613;28;20731;-76
2023/11/26 02:36:25;;;;;;;7.90;7.60;;;4.50;29.10;;;;;;5017010;28;20207;-76
2023/11/26 02:38:55;;;;;;;7.65;7.45;;;4.40;1.00;;;;;;5017283;28;20592;-78
2023/11/26 02:41:26;;;;;;;7.43;7.22;;;4.40;1.00;;;;;;5015986;28;20223;-77
2023/11/26 02:43:54;;;;;;;7.55;7.35;;;4.40;25.00;;;;;;5018067;28;20272;-76
2023/11/26 02:46:22;;;;;;;8.00;7.80;;;4.40;23.80;;;;;;5015764;28;20203;-77
2023/11/26 02:48:50;;;;;;;7.40;7.20;;;4.40;1.00;;;;;;5013533;28;20226;-76
2023/11/26 02:51:19;;;;;;;8.07;7.65;;;4.30;1.00;;;;;;5014502;28;20212;-77
2023/11/26 02:53:47;;;;;;;8.20;7.90;;;4.30;1.00;;;;;;5016881;28;20290;-75
2023/11/26 02:56:15;;;;;;;7.85;7.55;;;4.30;1.00;;;;;;5015078;28;20203;-76
2023/11/26 02:58:45;;;;;;;7.55;7.28;;;4.30;28.90;;;;;;5018293;28;20206;-76
2023/11/26 03:01:17;;;;;;;7.50;7.20;;;4.30;27.40;;;;;;5016226;28;20213;-76
2023/11/26 03:03:47;;;;;;;7.00;6.75;;;4.30;24.00;;;;;;5012539;28;20218;-76
2023/11/26 03:06:16;;;;;;;6.93;6.63;;;4.30;1.00;;;;;;5015836;28;20191;-76
2023/11/26 03:08:45;;;;;;;6.95;6.70;;;4.30;1.00;;;;;;5016695;28;20218;-75
2023/11/26 03:14:00;;;;;;;7.00;6.80;;;4.20;1.00;;;;;;5012401;28;20222;-76
2023/11/26 03:16:29;;;;;;;7.45;6.93;;;4.20;1.00;;;;;;5011465;28;20723;-75
2023/11/26 03:18:57;;;;;;;6.65;6.55;;;4.20;1.00;;;;;;5016425;28;20601;-76
2023/11/26 03:21:28;;;;;;;6.70;6.50;;;4.20;1.00;;;;;;5014224;28;20229;-76
2023/11/26 03:23:57;;;;;;;8.98;8.68;;;4.20;1.00;;;;;;5014162;28;20236;-77
2023/11/26 03:26:26;;;;;;;7.10;6.90;;;4.20;1.00;;;;;;5016806;28;20289;-75
2023/11/26 03:28:55;;;;;;;6.60;6.30;;;4.10;1.00;;;;;;5016182;28;20260;-77
2023/11/26 03:31:26;;;;;;;6.65;6.45;;;4.10;1.00;;;;;;5013840;28;20233;-78
2023/11/26 03:33:54;;;;;;;6.80;6.45;;;4.10;1.00;;;;;;5014987;28;20821;-77
2023/11/26 03:36:22;;;;;;;6.35;6.13;;;4.10;1.00;;;;;;5017017;28;20692;-77
2023/11/26 03:38:51;;;;;;;6.55;6.30;;;4.10;1.00;;;;;;5016094;28;20278;-76
2023/11/26 03:41:19;;;;;;;7.10;6.70;;;4.10;1.00;;;;;;5014092;28;20515;-75
2023/11/26 03:43:47;;;;;;;6.55;6.35;;;4.10;1.00;;;;;;5015563;28;20242;-75
2023/11/26 03:46:17;;;;;;;6.80;6.50;;;4.10;1.00;;;;;;5014989;28;20210;-76
2023/11/26 03:48:46;;;;;;;6.80;6.50;;;4.00;1.00;;;;;;5016057;28;20234;-76
2023/11/26 03:51:18;;;;;;;7.00;6.60;;;4.10;1.00;;;;;;5013980;28;20230;-77
2023/11/26 03:53:46;;;;;;;6.82;6.43;;;4.10;1.00;;;;;;5015508;28;20229;-76
2023/11/26 03:56:15;;;;;;;6.40;6.20;;;4.00;1.00;;;;;;5017518;28;20690;-76
2023/11/26 03:58:43;;;;;;;6.63;6.32;;;4.10;99.90;;;;;;5014741;28;20856;-76
2023/11/26 04:01:12;;;;;;;6.53;6.32;;;4.00;99.90;;;;;;5017661;28;20206;-76
2023/11/26 04:03:41;;;;;;;8.00;7.40;;;4.00;99.90;;;;;;5014512;28;20215;-76
2023/11/26 04:06:10;;;;;;;7.45;7.15;;;3.90;1.00;;;;;;5012574;28;20268;-76
2023/11/26 04:08:39;;;;;;;7.80;7.50;;;4.00;1.00;;;;;;5016594;28;20219;-75
2023/11/26 04:11:07;;;;;;;7.10;6.90;;;4.00;1.00;;;;;;5014498;28;20199;-77
2023/11/26 04:13:35;;;;;;;7.95;7.38;;;4.00;1.00;;;;;;5017246;28;20731;-76
2023/11/26 04:16:04;;;;;;;7.50;7.20;;;4.00;1.00;;;;;;5012901;28;20191;-76
2023/11/26 04:18:33;;;;;;;7.50;7.10;;;4.10;1.00;;;;;;5016260;28;20194;-78
2023/11/26 04:21:02;;;;;;;7.30;7.00;;;4.10;1.00;;;;;;5017767;28;20198;-76
2023/11/26 04:23:32;;;;;;;9.02;7.43;;;4.10;1.00;;;;;;5016884;28;20586;-76
2023/11/26 04:26:01;;;;;;;7.00;6.80;;;4.20;1.00;;;;;;5016421;28;20264;-76
2023/11/26 04:28:30;;;;;;;7.03;6.72;;;4.20;1.00;;;;;;5016235;28;20280;-76
2023/11/26 04:30:59;;;;;;;7.47;6.97;;;4.30;1.00;;;;;;5015406;28;20669;-76
2023/11/26 04:33:27;;;;;;;7.30;7.10;;;4.30;1.00;;;;;;5016570;28;20496;-76
2023/11/26 04:35:57;;;;;;;6.40;6.30;;;4.30;1.00;;;;;;5020246;28;20218;-76
2023/11/26 04:38:25;;;;;;;6.80;6.60;;;4.30;99.90;;;;;;5014891;28;20217;-76
2023/11/26 04:40:55;;;;;;;6.80;6.50;;;4.30;1.00;;;;;;5017119;28;20210;-76
2023/11/26 04:43:23;;;;;;;6.85;6.65;;;4.30;1.00;;;;;;5014870;28;20253;-77
2023/11/26 04:45:51;;;;;;;6.90;6.70;;;4.30;1.00;;;;;;5015672;28;20194;-76
2023/11/26 04:48:19;;;;;;;6.60;6.50;;;4.30;1.00;;;;;;5014248;28;20294;-76
2023/11/26 04:50:46;;;;;;;6.85;6.65;;;4.30;1.00;;;;;;5017373;28;20580;-77
2023/11/26 04:53:16;;;;;;;6.30;6.20;;;4.30;1.00;;;;;;5014995;28;20223;-76
2023/11/26 04:55:44;;;;;;;6.60;6.40;;;4.30;1.00;;;;;;5014058;28;21410;-77
2023/11/26 04:58:14;;;;;;;6.72;6.32;;;4.30;1.00;;;;;;5015130;28;20217;-78
2023/11/26 05:00:42;;;;;;;7.60;7.30;;;4.30;1.00;;;;;;5011797;28;20198;-77
2023/11/26 05:03:10;;;;;;;7.63;7.43;;;4.40;1.00;;;;;;5010208;28;20766;-77
2023/11/26 05:05:39;;;;;;;7.10;6.90;;;4.40;1.00;;;;;;5016983;28;20203;-77
2023/11/26 05:08:08;;;;;;;7.05;6.85;;;4.40;1.00;;;;;;5018654;28;20197;-76
2023/11/26 05:10:36;;;;;;;7.10;6.85;;;4.40;1.00;;;;;;5020436;28;20219;-76
2023/11/26 05:13:04;;;;;;;7.32;7.13;;;4.40;1.00;;;;;;5015737;28;20708;-77
2023/11/26 05:15:34;;;;;;;7.38;7.20;;;4.50;1.00;;;;;;5018539;28;20211;-77
2023/11/26 05:18:02;;;;;;;7.10;7.00;;;4.40;1.00;;;;;;5017355;28;20598;-77
2023/11/26 05:20:30;;;;;;;7.43;7.32;;;4.40;1.00;;;;;;5016475;28;20233;-76
2023/11/26 05:22:58;;;;;;;7.57;7.28;;;4.40;1.00;;;;;;5016740;28;20230;-76
2023/11/26 05:25:27;;;;;;;7.90;7.50;;;4.40;1.00;;;;;;5018440;28;20687;-74
2023/11/26 05:27:55;;;;;;;7.63;7.40;;;4.50;1.00;;;;;;5019628;28;21188;-76
2023/11/26 05:30:23;;;;;;;7.53;7.32;;;4.40;1.00;;;;;;5016687;28;20523;-75
2023/11/26 05:32:53;;;;;;;7.53;7.40;;;4.40;1.00;;;;;;5015473;28;20230;-77
2023/11/26 05:35:21;;;;;;;7.43;7.13;;;4.40;1.00;;;;;;5020197;28;20202;-76
2023/11/26 05:37:49;;;;;;;7.30;7.00;;;4.40;1.00;;;;;;5017845;28;20481;-76
2023/11/26 05:40:17;;;;;;;8.13;7.50;;;4.30;1.00;;;;;;5017946;28;20210;-75
2023/11/26 05:42:45;;;;;;;7.97;7.68;;;4.40;1.00;;;;;;5018048;28;20735;-75
2023/11/26 05:45:13;;;;;;;7.60;7.40;;;4.40;1.00;;;;;;5016467;28;20210;-75
2023/11/26 05:47:42;;;;;;;7.50;7.20;;;4.40;1.00;;;;;;5014624;28;20198;-75
2023/11/26 05:50:12;;;;;;;7.40;7.20;;;4.40;1.00;;;;;;5017585;28;20750;-76
2023/11/26 05:52:40;;;;;;;7.72;7.50;;;4.30;1.00;;;;;;5018358;28;20273;-75
2023/11/26 05:55:10;;;;;;;7.20;7.00;;;4.40;1.00;;;;;;5016710;28;20879;-76
2023/11/26 05:57:38;;;;;;;7.85;7.45;;;4.40;1.00;;;;;;5016753;28;20238;-75
2023/11/26 06:00:07;;;;;;;7.13;6.93;;;4.40;1.00;;;;;;5019412;28;20273;-76
2023/11/26 06:02:35;;;;;;;7.50;7.30;;;4.40;1.00;;;;;;5018551;28;20218;-75
2023/11/26 06:05:04;;;;;;;8.55;7.80;;;4.50;1.00;;;;;;5018933;28;20453;-75
2023/11/26 06:07:33;;;;;;;7.82;7.63;;;4.50;1.00;;;;;;5014918;28;20314;-76
2023/11/26 06:10:02;;;;;;;7.20;7.00;;;4.40;1.00;;;;;;5021109;28;20214;-76
2023/11/26 06:12:31;;;;;;;7.07;6.95;;;4.50;1.00;;;;;;5016084;28;20226;-76
2023/11/26 06:14:59;;;;;;;8.77;8.00;;;4.50;1.00;;;;;;5018052;28;20294;-77
2023/11/26 06:17:28;;;;;;;6.80;6.70;;;4.50;1.00;;;;;;5017550;28;20586;-76
2023/11/26 06:19:56;;;;;;;7.10;6.90;;;4.50;1.00;;;;;;5018669;28;20289;-76
2023/11/26 06:22:24;;;;;;;7.53;7.15;;;4.50;1.00;;;;;;5017768;28;20599;-76
2023/11/26 06:24:53;;;;;;;7.10;7.00;;;4.50;1.00;;;;;;5020789;28;20206;-75
2023/11/26 06:27:21;;;;;;;7.07;6.97;;;4.50;1.00;;;;;;5021176;28;20207;-75
2023/11/26 06:29:49;;;;;;;7.43;7.18;;;4.50;1.00;;;;;;5013962;28;20225;-76
2023/11/26 06:32:18;;;;;;;7.20;7.10;;;4.50;1.00;;;;;;5017227;28;20558;-77
2023/11/26 06:34:47;;;;;;;7.55;7.07;;;4.50;1.00;;;;;;5018842;28;20232;-76
2023/11/26 06:37:15;;;;;;;7.38;7.18;;;4.60;1.00;;;;;;5015609;28;20225;-75
2023/11/26 06:39:43;;;;;;;8.02;7.50;;;4.60;1.00;;;;;;5013057;28;20977;-76
2023/11/26 06:42:14;;;;;;;7.40;7.20;;;4.60;1.00;;;;;;5013205;28;20607;-76
2023/11/26 06:44:42;;;;;;;7.45;7.25;;;4.60;1.00;;;;;;5019777;28;20203;-75
2023/11/26 06:47:10;;;;;;;7.50;7.20;;;4.70;1.00;;;;;;5017524;28;20217;-76
2023/11/26 06:49:38;;;;;;;7.03;6.93;;;4.60;1.00;;;;;;5019130;28;20476;-76
2023/11/26 06:52:07;;;;;;;7.10;6.90;;;4.60;1.00;;;;;;5017690;28;20209;-76
2023/11/26 06:54:35;;;;;;;7.45;7.25;;;4.70;99.90;;;;;;5016364;28;20280;-78
2023/11/26 06:57:04;;;;;;;7.10;6.90;;;4.60;1.00;;;;;;5017556;28;20201;-76
2023/11/26 06:59:33;;;;;;;6.80;6.70;;;4.60;1.00;;;;;;5016165;28;20454;-75
2023/11/26 07:02:05;;;;;;;6.97;6.88;;;4.60;1.00;;;;;;5013509;28;20858;-76
2023/11/26 07:04:34;;;;;;;7.20;7.00;;;4.70;1.00;;;;;;5015562;28;20249;-76
2023/11/26 07:07:02;;;;;;;7.20;7.00;;;4.70;1.00;;;;;;5016570;28;20303;-76
2023/11/26 07:09:32;;;;;;;7.30;7.10;;;4.70;1.00;;;;;;5020076;28;20194;-75
2023/11/26 07:12:00;;;;;;;7.40;7.20;;;4.70;1.00;;;;;;5016882;28;20218;-76
2023/11/26 07:14:29;;;;;;;6.90;6.80;;;4.60;1.00;;;;;;5013006;28;20545;-75
2023/11/26 07:16:58;;;;;;;7.53;7.30;;;4.60;1.00;;;;;;5015304;28;20198;-76
2023/11/26 07:19:26;;;;;;;7.47;7.25;;;4.60;1.00;;;;;;5019311;28;20203;-76
2023/11/26 07:21:55;;;;;;;7.55;7.35;;;4.60;1.00;;;;;;5016382;28;20207;-75
2023/11/26 07:24:23;;;;;;;7.72;7.43;;;4.60;1.00;;;;;;5016205;28;20234;-76
2023/11/26 07:26:52;;;;;;;7.72;7.53;;;4.70;1.00;;;;;;5012465;28;20203;-76
2023/11/26 07:29:20;;;;;;;8.35;7.95;;;4.70;1.00;;;;;;5016763;28;20222;-76
2023/11/26 07:31:48;;;;;;;7.73;7.43;;;4.70;1.00;;;;;;5015534;28;20746;-75
2023/11/26 07:34:18;;;;;;;7.80;7.60;;;4.70;1.00;;;;;;5016765;28;21084;-77
2023/11/26 07:36:51;;;;;;;7.95;7.65;;;4.70;1.00;;;;;;5016235;28;20211;-75
2023/11/26 07:39:19;;;;;;;7.93;7.68;;;4.80;1.00;;;;;;5019919;28;20285;-76
2023/11/26 07:41:47;;;;;;;7.90;7.70;;;4.80;1.00;;;;;;5015922;28;20596;-75
2023/11/26 07:44:16;;;;;;;8.00;7.70;;;4.70;1.00;;;;;;5016583;28;20693;-77
2023/11/26 07:46:44;;;;;;;7.40;7.20;;;4.70;1.00;;;;;;5016183;28;20210;-74
2023/11/26 07:49:12;;;;;;;7.80;7.60;;;4.70;1.00;;;;;;5019909;28;20202;-75
2023/11/26 07:51:42;;;;;;;8.17;7.87;;;4.70;1.00;;;;;;5017911;28;20260;-76
2023/11/26 07:54:10;;;;;;;8.30;7.97;;;4.70;1.00;;;;;;5017430;28;20485;-77
2023/11/26 07:56:53;;;;;;;9.63;8.93;;;4.80;71.10;;;;;;5012133;28;20206;-76
2023/11/26 07:59:21;;;;;;;7.95;7.65;;;4.80;31.10;;;;;;5017104;28;20199;-77
2023/11/26 08:01:50;;;;;;;10.70;9.90;;;4.70;1.00;;;;;;5013500;28;20202;-75
2023/11/26 08:04:18;;;;;;;8.60;8.20;;;4.70;99.90;;;;;;5017306;28;20236;-76
2023/11/26 08:06:49;;;;;;;8.45;8.05;;;4.80;99.90;;;;;;5015534;28;20199;-76
2023/11/26 08:09:17;;;;;;;8.70;8.30;;;4.80;99.90;;;;;;5015497;28;20206;-76
2023/11/26 08:11:47;;;;;;;9.27;8.77;;;4.80;99.90;;;;;;5014861;28;20215;-76
2023/11/26 08:14:15;;;;;;;8.80;8.50;;;4.80;99.90;;;;;;5014454;28;20489;-77
2023/11/26 08:16:46;;;;;;;8.02;7.63;;;4.80;99.90;;;;;;5012164;28;20487;-75
2023/11/26 08:19:17;;;;;;;7.80;7.50;;;4.80;46.60;;;;;;5013810;28;20209;-77
2023/11/26 08:21:47;;;;;;;7.60;7.40;;;4.80;99.90;;;;;;5016638;28;20286;-76
2023/11/26 08:24:19;;;;;;;7.85;7.65;;;4.70;99.90;;;;;;5012879;28;20325;-76
2023/11/26 08:26:48;;;;;;;8.00;7.70;;;4.70;99.90;;;;;;5014195;28;20211;-75
2023/11/26 08:29:18;;;;;;;7.60;7.30;;;4.80;99.90;;;;;;5014326;28;20202;-77
2023/11/26 08:31:47;;;;;;;7.70;7.45;;;4.80;95.10;;;;;;5017575;28;20237;-77
2023/11/26 08:34:17;;;;;;;7.90;7.60;;;4.70;54.40;;;;;;5011427;28;20222;-76
2023/11/26 08:36:46;;;;;;;8.07;7.65;;;4.70;48.60;;;;;;5013479;28;20202;-77
2023/11/26 08:39:18;;;;;;;8.00;7.80;;;4.70;99.90;;;;;;5016494;28;20203;-76
2023/11/26 08:41:48;;;;;;;8.63;8.32;;;4.70;99.90;;;;;;5017246;28;20252;-77
2023/11/26 08:44:16;;;;;;;9.90;9.30;;;4.80;99.90;;;;;;5021548;28;20276;-76
2023/11/26 08:46:45;;;;;;;8.25;8.05;;;4.80;99.90;;;;;;5020208;28;20210;-76
2023/11/26 08:49:18;;;;;;;8.20;7.90;;;4.90;99.90;;;;;;5018875;28;20210;-75
2023/11/26 08:51:46;;;;;;;8.73;8.25;;;5.00;99.90;;;;;;5020024;28;20546;-75
2023/11/26 08:54:15;;;;;;;9.00;8.60;;;5.00;99.90;;;;;;5021494;28;20219;-76
2023/11/26 08:56:43;;;;;;;8.98;8.68;;;5.10;99.90;;;;;;5018235;28;20281;-76
2023/11/26 08:59:13;;;;;;;9.43;9.02;;;5.20;99.90;;;;;;5012017;28;20591;-76
2023/11/26 09:01:41;;;;;;;8.80;8.50;;;5.30;99.90;;;;;;5021121;28;20207;-74
2023/11/26 09:04:10;;;;;;;8.67;8.47;;;5.50;99.90;;;;;;5021413;28;20483;-75
2023/11/26 09:06:39;;;;;;;8.27;7.87;;;5.70;1.00;;;;;;5019022;28;20454;-76
2023/11/26 09:09:07;;;;;;;8.43;8.23;;;5.70;1.00;;;;;;5019993;28;20452;-76
2023/11/26 09:11:35;;;;;;;9.33;8.63;;;5.90;1.00;;;;;;5017041;28;20472;-77
2023/11/26 09:14:03;;;;;;;9.20;8.80;;;6.00;99.90;;;;;;5017378;28;20471;-76
2023/11/26 09:16:36;;;;;;;9.00;8.70;;;6.20;99.90;;;;;;5017776;28;21001;-75
2023/11/26 09:19:05;;;;;;;9.10;8.90;;;6.30;99.90;;;;;;5018604;28;21024;-76
2023/11/26 09:21:33;;;;;;;9.73;9.40;;;6.50;99.90;;;;;;5016032;28;20454;-76
2023/11/26 09:24:01;;;;;;;10.50;10.20;;;6.70;99.90;;;;;;5013595;28;20478;-76
2023/11/26 09:26:30;;;;;;;11.10;10.60;;;7.00;99.90;;;;;;5018044;28;20471;-77
2023/11/26 09:28:58;;;;;;;11.10;10.60;;;7.40;51.70;;;;;;5018645;28;20444;-76
2023/11/26 09:31:27;;;;;;;11.43;10.90;;;8.10;1.00;;;;;;5021405;28;20958;-77
2023/11/26 09:33:57;;;;;;;12.13;11.63;;;8.40;1.00;;;;;;5012738;28;21009;-76
2023/11/26 09:36:25;;;;;;;11.03;10.53;;;8.20;1.00;;;;;;5018915;28;20989;-76
2023/11/26 09:38:53;;;;;;;10.43;10.03;;;8.00;1.00;;;;;;5021634;28;20445;-76
2023/11/26 09:41:22;;;;;;;11.10;10.40;;;8.00;1.00;;;;;;5017775;28;20457;-76
2023/11/26 09:43:50;;;;;;;10.47;10.17;;;8.80;1.00;;;;;;5021314;28;20505;-76
2023/11/26 09:46:20;;;;;;;11.20;10.57;;;9.50;99.90;;;;;;5019290;28;20466;-76
2023/11/26 09:48:49;;;;;;;10.70;10.30;;;10.50;99.90;;;;;;5020303;28;20464;-75
2023/11/26 09:51:23;;;;;;;11.03;10.37;;;11.30;99.90;;;;;;5016876;28;20878;-77
2023/11/26 09:53:52;;;;;;;9.60;9.27;;;11.80;99.90;;;;;;5018773;28;20575;-77
2023/11/26 09:56:20;;;;;;;9.70;9.30;;;12.00;99.90;;;;;;5020731;28;20489;-76
2023/11/26 09:58:48;;;;;;;10.13;9.50;;;11.30;99.90;;;;;;5018651;28;20541;-76
2023/11/26 10:01:16;;;;;;;10.50;10.00;;;11.10;99.90;;;;;;5016695;28;20450;-77
2023/11/26 10:04:01;;;;;;;10.53;10.03;;;11.80;99.90;;;;;;5031611;28;20473;-77
2023/11/26 10:06:31;;;;;;;9.20;8.63;;;11.90;99.90;;;;;;5016130;28;20460;-76
2023/11/26 10:09:00;;;;;;;8.97;8.57;;;11.10;99.90;;;;;;5011851;28;20532;-77
2023/11/26 10:11:28;;;;;;;9.50;9.00;;;10.70;99.90;;;;;;5016719;28;20570;-74
2023/11/26 10:13:57;;;;;;;9.50;9.10;;;9.80;99.90;;;;;;5020040;28;20472;-74
2023/11/26 10:16:31;;;;;;;9.10;8.80;;;9.30;99.90;;;;;;5014102;28;20454;-76
2023/11/26 10:19:01;;;;;;;9.93;9.43;;;8.90;99.90;;;;;;5016123;28;20465;-75
2023/11/26 10:21:32;;;;;;;9.50;9.10;;;8.50;99.90;;;;;;5018129;28;21024;-76
2023/11/26 10:24:01;;;;;;;10.83;10.23;;;8.20;99.90;;;;;;5018404;28;20903;-74
2023/11/26 10:26:31;;;;;;;9.30;9.00;;;7.90;99.90;;;;;;5018188;28;20519;-76
2023/11/26 10:29:08;;;;;;;9.30;8.70;;;7.90;99.90;;;;;;5013396;28;21195;-75
2023/11/26 10:31:37;;;;;;;9.70;9.40;;;8.20;99.90;;;;;;5016595;28;20876;-75
2023/11/26 10:34:12;;;;;;;9.27;8.80;;;8.20;99.90;;;;;;5012887;28;21081;-75
2023/11/26 10:36:43;;;;;;;9.70;9.20;;;7.90;99.90;;;;;;5016269;28;20480;-75
2023/11/26 10:39:11;;;;;;;11.07;10.37;;;8.80;99.90;;;;;;5017073;28;20507;-76
2023/11/26 10:41:40;;;;;;;7.70;7.50;;;10.80;99.90;;;;;;5014892;28;20456;-76
2023/11/26 10:44:09;;;;;;;7.77;7.57;;;10.40;99.90;;;;;;5017564;28;20479;-76
2023/11/26 10:46:37;;;;;;;7.77;7.57;;;10.00;99.90;;;;;;5017665;28;20445;-73
2023/11/26 10:49:12;;;;;;;8.17;7.67;;;9.90;99.90;;;;;;5018125;28;20448;-75
2023/11/26 10:51:46;;;;;;;7.90;7.70;;;9.80;99.90;;;;;;5015280;28;20448;-75
2023/11/26 10:54:24;;;;;;;9.13;8.80;;;9.80;99.90;;;;;;5010720;28;21042;-76
2023/11/26 10:56:57;;;;;;;8.57;7.90;;;9.80;99.90;;;;;;5015706;28;21250;-76
2023/11/26 10:59:29;;;;;;;8.20;7.90;;;10.00;99.90;;;;;;5014827;28;20993;-76
2023/11/26 11:02:01;;;;;;;8.33;7.97;;;9.90;99.90;;;;;;5015530;28;20568;-74
2023/11/26 11:04:34;;;;;;;8.40;8.10;;;9.70;99.90;;;;;;5018970;28;20477;-76
2023/11/26 11:07:04;;;;;;;8.80;8.40;;;9.20;99.90;;;;;;5017126;28;20457;-76
2023/11/26 11:09:41;;;;;;;8.60;8.30;;;8.90;99.90;;;;;;5016217;28;20497;-75
2023/11/26 11:12:13;;;;;;;9.93;9.20;;;8.60;99.90;;;;;;5015626;28;20453;-76
2023/11/26 11:14:42;;;;;;;8.97;8.40;;;8.40;99.90;;;;;;5016365;28;20461;-76
2023/11/26 11:17:26;;;;;;;7.90;7.70;;;8.10;99.90;;;;;;5018413;28;20449;-75
2023/11/26 11:19:55;;;;;;;8.70;8.40;;;8.30;99.90;;;;;;5015661;28;20509;-74
2023/11/26 11:22:35;;;;;;;8.30;8.00;;;8.40;99.90;;;;;;5017120;28;20473;-75
2023/11/26 11:25:08;;;;;;;8.47;8.10;;;8.30;99.90;;;;;;5017233;28;20445;-76
2023/11/26 11:27:51;;;;;;;8.90;8.60;;;8.30;99.90;;;;;;5015930;28;20539;-77
2023/11/26 11:30:56;;;;;;;7.93;7.73;;;8.20;99.90;;;;;;5014339;28;20545;-74
2023/11/26 11:33:24;;;;;;;8.67;8.27;;;8.20;99.90;;;;;;5014834;28;20480;-75
2023/11/26 11:35:53;;;;;;;8.40;8.10;;;8.10;99.90;;;;;;5016488;28;20458;-74
2023/11/26 11:38:24;;;;;;;10.77;10.20;;;8.00;99.90;;;;;;5014557;28;20457;-75
2023/11/26 11:40:58;;;;;;;7.60;7.40;;;8.00;99.90;;;;;;5017146;28;20450;-75
2023/11/26 11:43:27;;;;;;;7.50;7.30;;;8.10;99.90;;;;;;5009598;28;20477;-75
2023/11/26 11:45:54;;;;;;;6.93;6.73;;;8.10;99.90;;;;;;5015769;28;20534;-75
2023/11/26 11:48:57;;;;;;;7.40;7.10;;;7.90;99.90;;;;;;5014389;28;23540;-76
2023/11/26 11:51:33;;;;;;;6.70;6.50;;;7.80;99.90;;;;;;5015755;28;20455;-75
2023/11/26 11:54:24;;;;;;;6.80;6.60;;;7.80;99.90;;;;;;5015997;28;20484;-75
2023/11/26 11:56:59;;;;;;;7.43;7.00;;;7.80;99.90;;;;;;5015313;28;20977;-75
2023/11/26 11:59:27;;;;;;;7.10;6.70;;;7.70;99.90;;;;;;5015025;28;23085;-77
2023/11/26 12:01:59;;;;;;;7.30;7.00;;;7.60;99.90;;;;;;5014118;28;20465;-75
2023/11/26 12:04:41;;;;;;;6.30;5.90;;;7.50;99.90;;;;;;5015544;28;20994;-74
2023/11/26 12:07:09;;;;;;;6.07;5.77;;;7.50;99.90;;;;;;5016856;28;20453;-75
2023/11/26 12:09:40;;;;;;;6.87;6.43;;;7.50;99.90;;;;;;5013903;28;20468;-75
2023/11/26 12:12:09;;;;;;;6.70;6.50;;;7.40;99.90;;;;;;5015225;28;20537;-75
2023/11/26 12:14:38;;;;;;;7.40;6.97;;;7.50;99.90;;;;;;5014384;28;20569;-76
2023/11/26 12:17:07;;;;;;;7.00;6.80;;;7.60;99.90;;;;;;5012795;28;20449;-76
2023/11/26 12:19:37;;;;;;;7.30;6.73;;;7.70;99.90;;;;;;5013962;28;20537;-75
2023/11/26 12:22:06;;;;;;;7.27;7.03;;;7.70;99.90;;;;;;5013748;28;20445;-75
2023/11/26 12:24:35;;;;;;;7.90;7.60;;;7.70;99.90;;;;;;5013636;28;20529;-75
2023/11/26 12:27:05;;;;;;;7.97;7.67;;;7.70;99.90;;;;;;5010776;28;20448;-75
2023/11/26 12:29:34;;;;;;;7.83;7.40;;;7.60;99.90;;;;;;5017501;28;20457;-75
2023/11/26 12:32:05;;;;;;;7.13;6.93;;;7.70;99.90;;;;;;5016455;28;20974;-75
2023/11/26 12:34:38;;;;;;;7.30;6.93;;;7.60;99.90;;;;;;5016450;28;20472;-75
2023/11/26 12:37:08;;;;;;;6.90;6.70;;;7.60;99.90;;;;;;5012411;28;20500;-76
2023/11/26 12:39:38;;;;;;;7.13;6.93;;;7.70;99.90;;;;;;5019556;28;21218;-76
2023/11/26 12:42:08;;;;;;;7.10;6.80;;;7.70;99.90;;;;;;5016476;28;20549;-75
2023/11/26 12:44:37;;;;;;;6.90;6.60;;;7.80;99.90;;;;;;5013288;28;20504;-75
2023/11/26 12:47:09;;;;;;;6.80;6.50;;;7.90;99.90;;;;;;5015755;28;20954;-76
2023/11/26 12:49:38;;;;;;;6.63;6.43;;;7.90;99.90;;;;;;5014074;28;20452;-76
2023/11/26 12:52:08;;;;;;;7.50;7.07;;;8.00;99.90;;;;;;5010665;28;20800;-76
2023/11/26 12:54:36;;;;;;;7.63;7.07;;;8.00;99.90;;;;;;5017805;28;20473;-75
2023/11/26 12:57:06;;;;;;;7.20;6.73;;;8.10;99.90;;;;;;5014874;28;20973;-76
2023/11/26 12:59:47;;;;;;;7.40;6.90;;;8.10;99.90;;;;;;5013375;28;20547;-76
2023/11/26 13:02:16;;;;;;;8.37;7.60;;;8.00;99.90;;;;;;5017312;28;20548;-75
2023/11/26 13:04:44;;;;;;;6.73;6.53;;;8.00;99.90;;;;;;5012844;28;20457;-75
2023/11/26 13:07:12;;;;;;;7.30;7.00;;;8.00;99.90;;;;;;5012879;28;20461;-74
2023/11/26 13:09:51;;;;;;;7.13;6.93;;;8.10;99.90;;;;;;5017780;28;20469;-77
2023/11/26 13:12:20;;;;;;;8.13;7.80;;;8.10;99.90;;;;;;5015366;28;20566;-75
2023/11/26 13:14:50;;;;;;;8.57;8.07;;;8.10;99.90;;;;;;5013906;28;20584;-75